Lusk, Wyoming
Current Conditions -  °F | °C
As of 10:35 AM on Wednesday 26 Nov 2014 (Local Time) from KGUR Reporting Station
Overcast Overcast  
Wind Chill: 36°   Ceiling: 3000
Heat Index: 36°   Visibility: 10mi
Dew Point: 30°   Wind: 0mph
Humidity: 80%   Direction: NA
Pressure: 30.23"   Gusts: NA
Location:  42.76°N, 104.45°W
Report Text: KGUR 261735Z AUTO 00000KT 10SM OVC030 02/M01 A3023 RMK AO2 T00201011
Loading
Personal Weather Stations






























Interactive Weather Map New forecast layout! Learn more

10-Day Weather Forecast

Advertisements
Track Severe Weather on mobile